createdAt,value
2019-06-10T00:00:21.845Z,87852.53
2019-06-10T00:02:50.641Z,87847.45
2019-06-10T00:05:16.754Z,87849.84
2019-06-10T00:07:43.653Z,87850.19
2019-06-10T00:10:12.272Z,87846.54
2019-06-10T00:12:41.829Z,87838.56
2019-06-10T00:15:10.848Z,87841.12
2019-06-10T00:17:50.680Z,87837.51
2019-06-10T00:20:08.264Z,87826.77
2019-06-10T00:22:35.212Z,87834.78
2019-06-10T00:25:05.354Z,87834.52
2019-06-10T00:27:31.848Z,87829.86
2019-06-10T00:29:58.614Z,87827.67
2019-06-10T00:32:25.351Z,87829.95
2019-06-10T00:34:52.095Z,87826.72
2019-06-10T00:37:21.203Z,87825.66
2019-06-10T00:39:47.596Z,87830.48
2019-06-10T00:42:15.307Z,87825.38
2019-06-10T00:44:42.426Z,87827.67
2019-06-10T00:47:14.280Z,87822.71
2019-06-10T00:49:37.669Z,87814.16
2019-06-10T00:52:05.854Z,87811.30
2019-06-10T00:54:33.014Z,87807.66
2019-06-10T00:57:01.198Z,87806.73
2019-06-10T00:59:31.058Z,87802.38
2019-06-10T01:01:56.982Z,87793.85
2019-06-10T01:04:23.720Z,87788.74
2019-06-10T01:06:51.400Z,87792.38
2019-06-10T01:09:18.438Z,87792.23
2019-06-10T01:11:45.170Z,87789.08
2019-06-10T01:14:13.791Z,87783.96
2019-06-10T01:16:41.163Z,87783.27
2019-06-10T01:19:07.969Z,87785.42
2019-06-10T01:21:34.864Z,87790.58
2019-06-10T01:24:01.596Z,87783.20
2019-06-10T01:26:30.845Z,87784.44
2019-06-10T01:28:57.150Z,87787.31
2019-06-10T01:31:24.463Z,87787.00
2019-06-10T01:33:51.678Z,87787.89
2019-06-10T01:36:20.895Z,87793.81
2019-06-10T01:38:47.018Z,87791.05
2019-06-10T01:41:14.992Z,87787.68
2019-06-10T01:43:42.183Z,87790.19
2019-06-10T01:46:11.301Z,87793.81
2019-06-10T01:48:44.298Z,87788.09
2019-06-10T01:51:07.132Z,87789.46
2019-06-10T01:53:33.949Z,87787.94
2019-06-10T01:56:01.116Z,87779.97
2019-06-10T01:58:28.014Z,87773.31
2019-06-10T02:00:54.706Z,87773.30
2019-06-10T02:03:23.956Z,87772.95
2019-06-10T02:05:51.621Z,87775.77
2019-06-10T02:08:21.909Z,87774.84
2019-06-10T02:10:47.098Z,87773.31
2019-06-10T02:13:15.130Z,87777.14
2019-06-10T02:15:42.433Z,87774.27
2019-06-10T02:18:11.697Z,87769.52
2019-06-10T02:20:37.774Z,87768.04
2019-06-10T02:23:04.519Z,87762.58
2019-06-10T02:25:31.245Z,87757.05
2019-06-10T02:27:58.012Z,87757.97
2019-06-10T02:30:40.243Z,87754.13
2019-06-10T02:32:53.270Z,87748.22
2019-06-10T02:35:32.231Z,87750.09
2019-06-10T02:37:48.622Z,87743.03
2019-06-10T02:40:19.304Z,87744.93
2019-06-10T02:42:44.270Z,87745.13
2019-06-10T02:45:15.199Z,87739.41
2019-06-10T02:47:39.941Z,87731.09
2019-06-10T02:50:09.332Z,87731.64
2019-06-10T02:52:38.458Z,87731.83
2019-06-10T02:55:05.860Z,87730.30
2019-06-10T02:57:38.883Z,87738.48
2019-06-10T03:00:06.534Z,87738.89
2019-06-10T03:02:35.893Z,87736.84
2019-06-10T03:04:58.595Z,87729.86
2019-06-10T03:07:28.788Z,87731.75
2019-06-10T03:09:54.037Z,87731.53
2019-06-10T03:12:23.999Z,87724.73
2019-06-10T03:14:49.512Z,87727.96
2019-06-10T03:17:16.239Z,87723.42
2019-06-10T03:19:50.132Z,87735.38
2019-06-10T03:22:13.112Z,87735.58
2019-06-10T03:24:42.021Z,87731.44
2019-06-10T03:27:08.628Z,87736.92
2019-06-10T03:29:35.366Z,87728.13
2019-06-10T03:32:04.967Z,87727.34
2019-06-10T03:34:40.200Z,87717.48
2019-06-10T03:36:59.278Z,87716.67
2019-06-10T03:39:28.406Z,87721.25
2019-06-10T03:41:54.742Z,87715.34
2019-06-10T03:44:23.528Z,87714.63
2019-06-10T03:46:52.216Z,87714.06
2019-06-10T03:49:19.157Z,87712.94
2019-06-10T03:51:45.946Z,87708.99
2019-06-10T03:54:13.211Z,87713.00
2019-06-10T03:56:42.735Z,87711.16
2019-06-10T03:59:08.854Z,87711.56
2019-06-10T04:01:35.552Z,87711.56
2019-06-10T04:04:02.518Z,87711.16
2019-06-10T04:06:29.675Z,87713.04
2019-06-10T04:08:56.442Z,87704.26
2019-06-10T04:11:25.570Z,87707.06
2019-06-10T04:13:53.472Z,87700.83
2019-06-10T04:16:22.593Z,87701.55
2019-06-10T04:18:49.002Z,87701.55
2019-06-10T04:21:15.752Z,87702.52
2019-06-10T04:23:42.661Z,87702.34
2019-06-10T04:26:09.492Z,87695.51
2019-06-10T04:28:36.252Z,87694.58
2019-06-10T04:31:02.986Z,87701.39
2019-06-10T04:33:29.872Z,87701.02
2019-06-10T04:35:56.608Z,87697.39
2019-06-10T04:38:24.819Z,87703.23
2019-06-10T04:40:52.540Z,87701.88
2019-06-10T04:43:20.409Z,87695.94
2019-06-10T04:45:47.859Z,87699.30
2019-06-10T04:48:14.755Z,87696.38
2019-06-10T04:50:45.673Z,87696.46
2019-06-10T04:53:10.045Z,87698.29
2019-06-10T04:55:36.949Z,87691.97
2019-06-10T04:58:03.673Z,87694.05
2019-06-10T05:00:32.941Z,87689.98
2019-06-10T05:02:59.060Z,87692.37
2019-06-10T05:05:27.269Z,87677.87
2019-06-10T05:07:54.313Z,87673.44
2019-06-10T05:10:23.676Z,87672.02
2019-06-10T05:12:49.662Z,87667.84
2019-06-10T05:15:16.519Z,87670.13
2019-06-10T05:17:43.962Z,87675.74
2019-06-10T05:20:12.606Z,87673.05
2019-06-10T05:22:39.434Z,87678.51
2019-06-10T05:25:06.313Z,87678.29
2019-06-10T05:27:33.197Z,87681.47
2019-06-10T05:30:02.098Z,87682.36
2019-06-10T05:32:29.067Z,87680.97
2019-06-10T05:34:55.810Z,87678.43
2019-06-10T05:37:23.747Z,87674.22
2019-06-10T05:39:52.689Z,87675.67
2019-06-10T05:42:19.588Z,87677.95
2019-06-10T05:44:46.343Z,87675.99
2019-06-10T05:47:13.128Z,87674.02
2019-06-10T05:49:39.828Z,87671.08
2019-06-10T05:52:06.557Z,87662.82
2019-06-10T05:54:35.279Z,87664.84
2019-06-10T05:57:02.628Z,87666.68
2019-06-10T05:59:29.543Z,87668.48
2019-06-10T06:01:56.420Z,87670.05
2019-06-10T06:04:24.640Z,87670.29
2019-06-10T06:06:53.198Z,87674.37
2019-06-10T06:09:22.119Z,87667.59
2019-06-10T06:11:48.760Z,87662.64
2019-06-10T06:14:15.497Z,87646.30
2019-06-10T06:16:43.295Z,87647.66
2019-06-10T06:19:12.434Z,87641.81
2019-06-10T06:21:42.824Z,87642.60
2019-06-10T06:24:07.522Z,87640.41
2019-06-10T06:26:37.898Z,87640.44
2019-06-10T06:29:02.772Z,87637.24
2019-06-10T06:31:30.775Z,87639.59
2019-06-10T06:33:58.220Z,87636.21
2019-06-10T06:36:24.959Z,87628.79
2019-06-10T06:38:53.102Z,87622.39
2019-06-10T06:41:22.426Z,87621.34
2019-06-10T06:43:48.737Z,87621.77
2019-06-10T06:46:15.659Z,87619.87
2019-06-10T06:48:44.903Z,87617.44
2019-06-10T06:51:13.099Z,87617.47
2019-06-10T06:53:50.528Z,87619.81
2019-06-10T06:56:08.957Z,87629.22
2019-06-10T06:58:37.341Z,87614.00
2019-06-10T07:01:10.570Z,87612.75
2019-06-10T07:03:35.372Z,87610.69
2019-06-10T07:06:02.645Z,87614.78
2019-06-10T07:08:33.282Z,87613.20
2019-06-10T07:11:02.820Z,87613.53
2019-06-10T07:13:35.436Z,87610.61
2019-06-10T07:16:03.016Z,87616.28
2019-06-10T07:18:29.657Z,87620.38
2019-06-10T07:20:57.747Z,87616.45
2019-06-10T07:23:25.551Z,87612.27
2019-06-10T07:25:53.224Z,87606.51
2019-06-10T07:28:22.891Z,87606.26
2019-06-10T07:30:52.697Z,87601.31
2019-06-10T07:33:18.065Z,87595.94
2019-06-10T07:35:45.472Z,87597.78
2019-06-10T07:38:12.518Z,87595.10
2019-06-10T07:40:39.250Z,87593.27
2019-06-10T07:43:05.949Z,87588.88
2019-06-10T07:45:33.804Z,87577.01
2019-06-10T07:48:02.870Z,87579.84
2019-06-10T07:50:29.683Z,87578.48
2019-06-10T07:52:58.540Z,87581.96
2019-06-10T07:55:25.298Z,87584.94
2019-06-10T07:57:53.066Z,87602.59
2019-06-10T08:00:22.743Z,87605.66
2019-06-10T08:02:49.572Z,87613.80
2019-06-10T08:05:16.291Z,87609.61
2019-06-10T08:07:45.120Z,87609.97
2019-06-10T08:10:13.342Z,87611.92
2019-06-10T08:12:41.839Z,87618.94
2019-06-10T08:15:09.074Z,87632.31
2019-06-10T08:17:55.861Z,87652.66
2019-06-10T08:20:22.736Z,87656.06
2019-06-10T08:22:54.360Z,87688.64
2019-06-10T08:25:18.029Z,87683.05
2019-06-10T08:27:47.373Z,87681.95
2019-06-10T08:30:22.124Z,87682.55
2019-06-10T08:32:46.356Z,87683.64
2019-06-10T08:35:12.881Z,87671.73
2019-06-10T08:37:40.793Z,87663.59
2019-06-10T08:40:08.866Z,87669.84
2019-06-10T08:42:36.568Z,87668.64
2019-06-10T08:45:05.042Z,87672.18
2019-06-10T08:47:32.660Z,87667.94
2019-06-10T08:49:59.667Z,87669.59
2019-06-10T08:52:26.413Z,87672.12
2019-06-10T08:54:54.392Z,87670.34
2019-06-10T08:57:23.837Z,87668.57
2019-06-10T08:59:50.283Z,87663.62
2019-06-10T09:02:17.008Z,87658.07
2019-06-10T09:04:47.622Z,87659.53
2019-06-10T09:07:12.625Z,87662.63
2019-06-10T09:09:40.486Z,87661.38
2019-06-10T09:12:07.531Z,87655.72
2019-06-10T09:14:34.245Z,87646.89
2019-06-10T09:17:03.430Z,87652.56
2019-06-10T09:19:29.676Z,87648.72
2019-06-10T09:21:56.762Z,87650.80
2019-06-10T09:24:23.610Z,87650.12
2019-06-10T09:26:52.480Z,87651.86
2019-06-10T09:29:18.940Z,87647.67
2019-06-10T09:31:49.254Z,87651.83
2019-06-10T09:34:14.377Z,87645.52
2019-06-10T09:36:46.087Z,87642.77
2019-06-10T09:39:09.637Z,87651.09
2019-06-10T09:41:41.409Z,87649.53
2019-06-10T09:44:05.268Z,87641.70
2019-06-10T09:46:33.638Z,87631.73
2019-06-10T09:49:03.657Z,87641.76
2019-06-10T09:51:32.407Z,87638.67
2019-06-10T09:54:04.673Z,87649.48
2019-06-10T09:56:27.522Z,87647.93
2019-06-10T09:58:55.318Z,87642.07
2019-06-10T10:01:24.493Z,87639.83
2019-06-10T10:03:58.308Z,87646.98
2019-06-10T10:06:19.451Z,87639.33
2019-06-10T10:08:51.481Z,87640.17
2019-06-10T10:11:14.942Z,87648.97
2019-06-10T10:13:44.992Z,87630.45
2019-06-10T10:16:10.183Z,87620.05
2019-06-10T10:18:37.069Z,87623.80
2019-06-10T10:21:04.108Z,87625.84
2019-06-10T10:23:48.465Z,87622.95
2019-06-10T10:25:59.607Z,87627.24
2019-06-10T10:28:26.616Z,87630.68
2019-06-10T10:30:57.358Z,87628.20
2019-06-10T10:33:26.860Z,87634.97
2019-06-10T10:35:50.731Z,87634.77
2019-06-10T10:38:17.455Z,87633.16
2019-06-10T10:40:47.643Z,87631.27
2019-06-10T10:43:25.408Z,87629.75
2019-06-10T10:45:43.444Z,87633.13
2019-06-10T10:48:10.202Z,87611.56
2019-06-10T10:50:40.172Z,87595.45
2019-06-10T10:53:06.979Z,87591.19
2019-06-10T10:55:33.830Z,87588.30
2019-06-10T10:58:03.000Z,87580.16
2019-06-10T11:00:44.761Z,87577.63
2019-06-10T11:03:14.691Z,87569.09
2019-06-10T11:05:44.756Z,87562.17
2019-06-10T11:08:13.361Z,87558.05
2019-06-10T11:10:39.456Z,87550.20
2019-06-10T11:13:11.172Z,87550.16
2019-06-10T11:15:38.268Z,87536.77
2019-06-10T11:18:08.426Z,87534.42
2019-06-10T11:20:35.488Z,87515.50
2019-06-10T11:23:03.460Z,87502.36
2019-06-10T11:25:32.975Z,87502.26
2019-06-10T11:27:58.906Z,87487.53
2019-06-10T11:30:25.886Z,87484.39
2019-06-10T11:32:55.889Z,87469.33
2019-06-10T11:35:21.771Z,87454.91
2019-06-10T11:37:48.962Z,87447.35
2019-06-10T11:40:15.989Z,87429.12
2019-06-10T11:42:43.638Z,87428.57
2019-06-10T11:45:11.616Z,87408.23
2019-06-10T11:47:38.492Z,87402.66
2019-06-10T11:50:06.797Z,87390.23
2019-06-10T11:52:34.696Z,87379.25
2019-06-10T11:55:11.989Z,87374.00
2019-06-10T11:57:32.367Z,87374.43
2019-06-10T12:00:13.894Z,87368.02
2019-06-10T12:02:37.476Z,87372.07
2019-06-10T12:05:13.003Z,87366.95
2019-06-10T12:07:42.592Z,87368.45
2019-06-10T12:10:12.887Z,87361.85
2019-06-10T12:12:39.333Z,87354.20
2019-06-10T12:15:08.277Z,87349.86
2019-06-10T12:17:47.093Z,87344.00
2019-06-10T12:20:08.748Z,87346.80
2019-06-10T12:22:35.657Z,87345.00
2019-06-10T12:25:28.425Z,87340.02
2019-06-10T12:27:34.389Z,87340.00
2019-06-10T12:30:04.785Z,87328.75
2019-06-10T12:32:30.220Z,87333.94
2019-06-10T12:34:57.951Z,87336.43
2019-06-10T12:37:25.508Z,87326.67
2019-06-10T12:39:54.386Z,87326.26
2019-06-10T12:42:22.416Z,87326.41
2019-06-10T12:44:49.384Z,87324.31
2019-06-10T12:47:16.118Z,87322.30
2019-06-10T12:49:42.933Z,87322.62
2019-06-10T12:52:12.371Z,87327.34
2019-06-10T12:54:38.357Z,87322.25
2019-06-10T12:57:06.840Z,87326.44
2019-06-10T12:59:33.778Z,87322.83
2019-06-10T13:02:10.580Z,87314.41
2019-06-10T13:04:31.221Z,87321.88
2019-06-10T13:07:00.347Z,87324.81
2019-06-10T13:09:29.636Z,87320.89
2019-06-10T13:11:57.769Z,87323.22
2019-06-10T13:14:24.758Z,87323.81
2019-06-10T13:16:52.609Z,87313.91
2019-06-10T13:19:19.487Z,87307.72
2019-06-10T13:21:46.360Z,87308.28
2019-06-10T13:24:14.023Z,87312.33
2019-06-10T13:26:43.006Z,87303.13
2019-06-10T13:29:10.345Z,87312.90
2019-06-10T13:31:38.232Z,87309.88
2019-06-10T13:34:09.567Z,87313.58
2019-06-10T13:36:34.791Z,87308.59
2019-06-10T13:39:03.995Z,87322.12
2019-06-10T13:41:30.135Z,87322.50
2019-06-10T13:43:57.908Z,87306.12
2019-06-10T13:46:25.405Z,87302.19
2019-06-10T13:48:52.386Z,87310.06
2019-06-10T13:51:19.344Z,87308.46
2019-06-10T13:53:46.558Z,87304.69
2019-06-10T13:56:38.233Z,87300.25
2019-06-10T13:58:46.127Z,87296.30
2019-06-10T14:01:20.765Z,87302.92
2019-06-10T14:03:39.175Z,87310.98
2019-06-10T14:06:23.833Z,87303.13
2019-06-10T14:08:34.503Z,87295.16
2019-06-10T14:11:06.892Z,87311.27
2019-06-10T14:13:32.377Z,87311.61
2019-06-10T14:15:58.315Z,87303.77
2019-06-10T14:18:25.077Z,87299.84
2019-06-10T14:20:53.071Z,87301.82
2019-06-10T14:23:22.025Z,87305.02
2019-06-10T14:25:49.029Z,87297.96
2019-06-10T14:28:32.612Z,87295.80
2019-06-10T14:30:44.434Z,87295.02
2019-06-10T14:33:14.266Z,87297.84
2019-06-10T14:35:42.920Z,87292.56
2019-06-10T14:38:10.120Z,87292.22
2019-06-10T14:40:38.203Z,87289.87
2019-06-10T14:43:06.260Z,87285.78
2019-06-10T14:45:33.080Z,87286.73
2019-06-10T14:47:59.795Z,87280.33
2019-06-10T14:50:26.615Z,87274.46
2019-06-10T14:52:55.884Z,87275.81
2019-06-10T14:55:23.287Z,87272.30
2019-06-10T14:57:50.307Z,87262.28
2019-06-10T15:00:18.219Z,87269.80
2019-06-10T15:02:45.068Z,87273.09
2019-06-10T15:05:19.594Z,87278.05
2019-06-10T15:07:45.358Z,87271.83
2019-06-10T15:10:15.913Z,87270.44
2019-06-10T15:12:42.327Z,87274.80
2019-06-10T15:15:10.306Z,87283.70
2019-06-10T15:17:36.991Z,87288.31
2019-06-10T15:20:07.793Z,87283.78
2019-06-10T15:22:34.600Z,87288.02
2019-06-10T15:25:03.189Z,87289.89
2019-06-10T15:27:33.678Z,87293.12
2019-06-10T15:29:58.460Z,87293.70
2019-06-10T15:32:33.820Z,87288.31
2019-06-10T15:34:53.952Z,87293.05
2019-06-10T15:37:23.822Z,87298.49
2019-06-10T15:39:49.229Z,87300.95
2019-06-10T15:42:16.033Z,87298.94
2019-06-10T15:44:49.739Z,87297.19
2019-06-10T15:47:13.907Z,87289.98
2019-06-10T15:49:40.058Z,87288.44
2019-06-10T15:52:06.825Z,87286.09
2019-06-10T15:54:33.659Z,87277.36
2019-06-10T15:57:03.007Z,87270.72
2019-06-10T15:59:29.486Z,87266.23
2019-06-10T16:01:56.207Z,87268.02
2019-06-10T16:04:25.781Z,87265.29
2019-06-10T16:06:53.052Z,87262.88
2019-06-10T16:09:20.305Z,87252.23
2019-06-10T16:11:47.297Z,87249.89
2019-06-10T16:14:14.801Z,87251.00
2019-06-10T16:16:43.245Z,87252.88
2019-06-10T16:19:12.839Z,87258.41
2019-06-10T16:21:38.763Z,87265.39
2019-06-10T16:24:05.438Z,87257.97
2019-06-10T16:26:35.399Z,87267.15
2019-06-10T16:29:03.141Z,87266.70
2019-06-10T16:31:29.869Z,87269.28
2019-06-10T16:33:56.647Z,87262.09
2019-06-10T16:36:25.853Z,87249.50
2019-06-10T16:38:52.816Z,87254.82
2019-06-10T16:41:19.921Z,87258.63
2019-06-10T16:43:46.639Z,87250.84
2019-06-10T16:46:13.477Z,87253.98
2019-06-10T16:48:40.403Z,87256.14
2019-06-10T16:51:09.283Z,87251.38
2019-06-10T16:53:36.418Z,87243.94
2019-06-10T16:56:03.550Z,87234.22
2019-06-10T16:58:30.366Z,87238.00
2019-06-10T17:00:57.074Z,87236.94
2019-06-10T17:03:26.799Z,87232.73
2019-06-10T17:05:53.317Z,87225.27
2019-06-10T17:08:23.284Z,87229.63
2019-06-10T17:10:48.883Z,87229.95
2019-06-10T17:13:15.640Z,87222.39
2019-06-10T17:15:42.479Z,87220.89
2019-06-10T17:18:09.403Z,87224.06
2019-06-10T17:20:36.169Z,87228.48
2019-06-10T17:23:03.324Z,87230.06
2019-06-10T17:25:30.090Z,87236.33
2019-06-10T17:27:56.808Z,87239.02
2019-06-10T17:30:25.267Z,87247.87
2019-06-10T17:32:53.337Z,87253.70
2019-06-10T17:35:20.150Z,87251.17
2019-06-10T17:37:46.819Z,87251.46
2019-06-10T17:40:14.082Z,87255.23
2019-06-10T17:42:42.858Z,87250.77
2019-06-10T17:45:12.816Z,87255.55
2019-06-10T17:47:39.419Z,87260.33
2019-06-10T17:50:07.135Z,87252.11
2019-06-10T17:52:36.622Z,87255.86
2019-06-10T17:55:04.982Z,87255.86
2019-06-10T17:57:35.011Z,87264.06
2019-06-10T18:00:00.408Z,87255.44
2019-06-10T18:02:27.356Z,87262.16
2019-06-10T18:04:54.026Z,87261.97
2019-06-10T18:07:22.712Z,87256.00
2019-06-10T18:09:49.441Z,87273.94
2019-06-10T18:12:16.178Z,87267.80
2019-06-10T18:14:43.141Z,87264.52
2019-06-10T18:17:09.917Z,87268.67
2019-06-10T18:19:37.423Z,87270.90
2019-06-10T18:22:04.602Z,87268.53
2019-06-10T18:24:32.861Z,87264.92
2019-06-10T18:27:02.147Z,87272.98
2019-06-10T18:29:29.169Z,87267.31
2019-06-10T18:31:56.136Z,87273.73
2019-06-10T18:34:22.849Z,87262.98
2019-06-10T18:36:52.015Z,87260.88
2019-06-10T18:39:18.233Z,87263.70
2019-06-10T18:41:46.020Z,87262.33
2019-06-10T18:44:22.545Z,87263.67
2019-06-10T18:46:43.318Z,87263.38
2019-06-10T18:49:09.991Z,87264.98
2019-06-10T18:51:37.384Z,87268.38
2019-06-10T18:54:04.395Z,87272.86
2019-06-10T18:56:33.731Z,87270.61
2019-06-10T18:59:13.403Z,87281.44
2019-06-10T19:01:28.392Z,87279.20
2019-06-10T19:03:55.137Z,87279.66
2019-06-10T19:06:22.925Z,87279.34
2019-06-10T19:08:49.860Z,87287.96
2019-06-10T19:11:16.564Z,87278.80
2019-06-10T19:13:43.737Z,87283.23
2019-06-10T19:16:12.984Z,87282.88
2019-06-10T19:18:40.881Z,87292.11
2019-06-10T19:21:09.436Z,87291.12
2019-06-10T19:23:37.847Z,87296.13
2019-06-10T19:26:04.859Z,87294.00
2019-06-10T19:28:33.839Z,87299.16
2019-06-10T19:31:02.261Z,87301.20
2019-06-10T19:33:28.778Z,87299.20
2019-06-10T19:35:55.503Z,87306.42
2019-06-10T19:38:23.010Z,87305.76
2019-06-10T19:40:52.159Z,87310.33
2019-06-10T19:43:18.688Z,87312.80
2019-06-10T19:45:46.792Z,87319.42
2019-06-10T19:48:13.635Z,87318.05
2019-06-10T19:50:47.597Z,87315.14
2019-06-10T19:53:08.964Z,87318.94
2019-06-10T19:55:36.988Z,87316.39
2019-06-10T19:58:03.997Z,87311.84
2019-06-10T20:00:33.148Z,87320.09
2019-06-10T20:02:59.514Z,87310.50
2019-06-10T20:05:26.225Z,87323.38
2019-06-10T20:07:53.445Z,87324.81
2019-06-10T20:10:20.190Z,87319.00
2019-06-10T20:12:46.913Z,87320.00
2019-06-10T20:15:23.006Z,87311.39
2019-06-10T20:17:52.342Z,87313.75
2019-06-10T20:20:18.656Z,87306.84
2019-06-10T20:22:46.751Z,87306.57
2019-06-10T20:25:14.167Z,87302.87
2019-06-10T20:27:43.761Z,87298.11
2019-06-10T20:30:24.372Z,87295.11
2019-06-10T20:32:41.586Z,87287.35
2019-06-10T20:35:07.705Z,87283.16
2019-06-10T20:37:34.507Z,87290.20
2019-06-10T20:40:03.561Z,87288.28
2019-06-10T20:42:32.192Z,87282.92
2019-06-10T20:44:58.442Z,87269.61
2019-06-10T20:47:25.177Z,87273.75
2019-06-10T20:49:55.894Z,87268.12
2019-06-10T20:52:22.161Z,87267.95
2019-06-10T20:54:50.043Z,87261.34
2019-06-10T20:57:16.978Z,87262.77
2019-06-10T20:59:46.442Z,87265.56
2019-06-10T21:02:13.565Z,87269.52
2019-06-10T21:04:41.704Z,87259.34
2019-06-10T21:07:12.722Z,87256.88
2019-06-10T21:09:44.081Z,87248.34
2019-06-10T21:12:12.922Z,87250.20
2019-06-10T21:14:39.781Z,87247.73
2019-06-10T21:17:07.155Z,87247.50
2019-06-10T21:19:33.897Z,87251.77
2019-06-10T21:22:02.708Z,87249.30
2019-06-10T21:24:29.403Z,87253.73
2019-06-10T21:26:56.145Z,87252.08
2019-06-10T21:29:23.016Z,87253.96
2019-06-10T21:31:50.431Z,87260.66
2019-06-10T21:34:18.271Z,87250.17
2019-06-10T21:36:45.315Z,87254.55
2019-06-10T21:39:12.007Z,87257.47
2019-06-10T21:41:38.766Z,87260.58
2019-06-10T21:44:05.575Z,87266.42
2019-06-10T21:46:32.680Z,87266.69
2019-06-10T21:48:59.599Z,87267.87
2019-06-10T21:51:26.397Z,87274.16
2019-06-10T21:53:55.050Z,87277.41
2019-06-10T21:56:22.499Z,87287.69
2019-06-10T21:58:51.520Z,87287.76
2019-06-10T22:01:18.182Z,87289.59
2019-06-10T22:03:50.232Z,87278.27
2019-06-10T22:06:13.510Z,87285.30
2019-06-10T22:08:42.322Z,87287.13
2019-06-10T22:11:08.776Z,87282.30
2019-06-10T22:13:35.658Z,87283.88
2019-06-10T22:16:03.319Z,87293.22
2019-06-10T22:18:32.195Z,87295.48
2019-06-10T22:20:58.857Z,87294.56
2019-06-10T22:23:25.581Z,87291.13
2019-06-10T22:25:55.621Z,87294.13
2019-06-10T22:28:22.167Z,87288.31
2019-06-10T22:30:49.215Z,87292.72
2019-06-10T22:33:15.932Z,87296.91
2019-06-10T22:35:42.831Z,87293.98
2019-06-10T22:38:09.560Z,87286.22
2019-06-10T22:40:36.280Z,87288.31
2019-06-10T22:43:03.353Z,87279.87
2019-06-10T22:45:32.349Z,87275.30
2019-06-10T22:47:58.926Z,87266.63
2019-06-10T22:50:25.803Z,87265.47
2019-06-10T22:52:55.603Z,87266.12
2019-06-10T22:55:21.059Z,87263.63
2019-06-10T22:57:48.652Z,87257.02
2019-06-10T23:00:16.068Z,87254.63
2019-06-10T23:02:43.850Z,87248.78
2019-06-10T23:05:17.204Z,87246.62
2019-06-10T23:07:43.412Z,87241.95
2019-06-10T23:10:12.233Z,87231.20
2019-06-10T23:12:38.958Z,87232.79
2019-06-10T23:15:06.819Z,87226.87
2019-06-10T23:17:33.569Z,87214.62
2019-06-10T23:20:03.022Z,87209.86
2019-06-10T23:22:28.986Z,87204.13
2019-06-10T23:24:56.226Z,87207.70
2019-06-10T23:27:23.027Z,87209.28
2019-06-10T23:29:50.413Z,87234.62
2019-06-10T23:32:18.307Z,87259.13
2019-06-10T23:34:45.187Z,87269.78
2019-06-10T23:37:12.538Z,87275.53
2019-06-10T23:39:42.449Z,87292.63
2019-06-10T23:42:08.422Z,87276.29
2019-06-10T23:44:35.173Z,87274.72
2019-06-10T23:47:03.842Z,87275.05
2019-06-10T23:49:32.283Z,87276.70
2019-06-10T23:52:00.362Z,87272.70
2019-06-10T23:54:27.578Z,87274.53
2019-06-10T23:56:54.419Z,87298.05
2019-06-10T23:59:22.656Z,87288.11
